createdAt,value
2022-12-24T06:20:00.504Z,22.10
2022-12-24T06:28:43.120Z,25.40
2022-12-24T06:37:24.083Z,21.10
2022-12-24T06:45:58.870Z,21.80
2022-12-24T06:54:34.329Z,20.20
2022-12-24T07:03:10.381Z,24.90
2022-12-24T07:11:45.160Z,24.00
2022-12-24T07:20:19.963Z,29.50
2022-12-24T07:28:51.593Z,29.80
2022-12-24T07:37:24.959Z,24.60
2022-12-24T07:45:56.317Z,24.90
2022-12-24T07:54:19.299Z,30.60
2022-12-24T08:02:42.512Z,32.30
2022-12-24T08:11:07.684Z,35.30
2022-12-24T08:19:30.851Z,38.10
2022-12-24T08:27:53.871Z,31.60
2022-12-24T08:36:17.112Z,25.00
2022-12-24T08:44:40.270Z,26.00
2022-12-24T08:53:03.310Z,23.50
2022-12-24T09:01:26.614Z,29.80
2022-12-24T09:09:49.922Z,26.30
2022-12-24T09:18:12.877Z,30.40
2022-12-24T09:26:36.539Z,28.80
2022-12-24T09:35:00.148Z,40.60
2022-12-24T09:43:25.465Z,35.70
2022-12-24T09:51:57.153Z,39.50
2022-12-24T10:00:30.425Z,35.10
2022-12-24T10:09:15.856Z,30.10
2022-12-24T10:18:00.839Z,32.90
2022-12-24T10:26:37.011Z,30.10
2022-12-24T10:35:06.617Z,28.30
2022-12-24T10:43:30.670Z,22.30
2022-12-24T10:52:03.353Z,24.60
2022-12-24T11:00:31.930Z,22.90
2022-12-24T11:09:20.743Z,27.40
2022-12-24T11:18:05.322Z,22.50
2022-12-24T11:26:30.718Z,22.80
2022-12-24T11:34:53.535Z,22.50
2022-12-24T11:43:22.066Z,23.00
2022-12-24T11:52:10.236Z,16.70
2022-12-24T12:00:33.530Z,18.30
2022-12-24T12:09:06.121Z,17.30
2022-12-24T12:18:16.641Z,17.20
2022-12-24T12:26:41.360Z,14.20
2022-12-24T12:35:17.151Z,12.30
2022-12-24T12:43:49.354Z,13.80
2022-12-24T12:52:17.168Z,9.60
2022-12-24T13:00:45.378Z,11.20
2022-12-24T13:09:23.710Z,12.10
2022-12-24T13:17:49.464Z,13.80
2022-12-24T13:26:14.822Z,9.80
2022-12-24T13:34:38.925Z,10.60
2022-12-24T13:43:01.824Z,12.10
2022-12-24T13:51:26.454Z,40.90
2022-12-24T14:00:02.566Z,17.90
2022-12-24T14:08:47.953Z,14.60
2022-12-24T14:17:27.063Z,10.60
2022-12-24T14:25:50.020Z,10.10
2022-12-24T14:34:13.853Z,16.40
2022-12-24T14:42:45.299Z,11.20
2022-12-24T14:51:20.522Z,14.40
2022-12-24T14:59:49.436Z,11.40
2022-12-24T15:08:19.690Z,17.10
2022-12-24T15:16:52.826Z,16.30
2022-12-24T15:25:25.244Z,10.10
2022-12-24T15:33:50.410Z,12.30
2022-12-24T15:42:18.803Z,13.50
2022-12-24T15:50:47.141Z,15.50
2022-12-24T15:59:13.183Z,13.40
2022-12-24T16:07:56.056Z,15.20
2022-12-24T16:16:32.615Z,15.20
2022-12-24T16:24:55.832Z,17.40
2022-12-24T16:33:20.876Z,15.60
2022-12-24T16:42:02.477Z,15.00
2022-12-24T16:50:25.293Z,14.20
2022-12-24T16:58:48.105Z,14.60
2022-12-24T17:07:12.901Z,18.70
2022-12-24T17:15:35.783Z,13.90
2022-12-24T17:23:58.704Z,14.10
2022-12-24T17:32:21.631Z,13.70
2022-12-24T17:40:44.661Z,18.50
2022-12-24T17:49:07.977Z,10.30
2022-12-24T17:57:30.787Z,12.50
2022-12-24T18:05:53.777Z,12.60
2022-12-24T18:14:18.952Z,16.90
2022-12-24T18:22:41.854Z,12.80
2022-12-24T18:31:07.536Z,19.10
2022-12-24T18:39:30.505Z,13.50
2022-12-24T18:47:53.419Z,9.60
2022-12-24T18:56:22.818Z,9.90
2022-12-24T19:04:45.623Z,10.10
2022-12-24T19:13:08.429Z,9.50
2022-12-24T19:21:31.287Z,11.30
2022-12-24T19:29:54.125Z,12.50
2022-12-24T19:38:16.902Z,10.20
2022-12-24T19:46:40.206Z,9.70
2022-12-24T19:55:03.099Z,10.20
2022-12-24T20:03:25.976Z,10.80
2022-12-24T20:11:52.082Z,12.70
2022-12-24T20:20:15.097Z,11.90
2022-12-24T20:28:38.963Z,20.30
2022-12-24T20:37:02.092Z,10.40
2022-12-24T20:45:25.134Z,12.10
2022-12-24T20:53:48.043Z,8.40
2022-12-24T21:02:14.240Z,14.20
2022-12-24T21:10:37.884Z,28.10
2022-12-24T21:19:01.586Z,20.60
2022-12-24T21:27:24.421Z,25.30
2022-12-24T21:35:47.576Z,23.00
2022-12-24T21:44:10.422Z,12.00
2022-12-24T21:52:33.773Z,10.70
2022-12-24T22:00:57.723Z,8.50
2022-12-24T22:09:39.093Z,8.80
2022-12-24T22:18:02.370Z,7.30
2022-12-24T22:26:25.401Z,10.80
2022-12-24T22:34:49.625Z,7.00
2022-12-24T22:43:12.519Z,8.70
2022-12-24T22:51:35.732Z,13.40
2022-12-24T22:59:58.655Z,10.30
2022-12-24T23:08:21.700Z,12.00
2022-12-24T23:16:44.693Z,16.60
2022-12-24T23:25:07.839Z,16.90
2022-12-24T23:33:31.173Z,19.20
2022-12-24T23:41:54.199Z,22.10
2022-12-24T23:50:17.140Z,19.60
2022-12-24T23:58:41.476Z,17.80
